sensor_id;sensor_type;location;lat;lon;timestamp;temperature;humidity
27413;DHT22;14871;52.702;5.230;2024-03-29T00:01:14;12.30;99.90
27413;DHT22;14871;52.702;5.230;2024-03-29T00:03:40;12.20;99.90
27413;DHT22;14871;52.702;5.230;2024-03-29T00:06:07;12.10;99.90
27413;DHT22;14871;52.702;5.230;2024-03-29T00:08:32;12.20;99.90
27413;DHT22;14871;52.702;5.230;2024-03-29T00:10:58;12.20;99.90
27413;DHT22;14871;52.702;5.230;2024-03-29T00:13:25;12.30;99.90
27413;DHT22;14871;52.702;5.230;2024-03-29T00:15:50;12.50;99.90
27413;DHT22;14871;52.702;5.230;2024-03-29T00:18:16;12.30;99.90
27413;DHT22;14871;52.702;5.230;2024-03-29T00:20:42;12.30;99.90
27413;DHT22;14871;52.702;5.230;2024-03-29T00:23:07;12.20;99.90
27413;DHT22;14871;52.702;5.230;2024-03-29T00:25:33;11.90;99.90
27413;DHT22;14871;52.702;5.230;2024-03-29T00:27:59;12.20;99.90
27413;DHT22;14871;52.702;5.230;2024-03-29T00:30:25;12.20;99.90
27413;DHT22;14871;52.702;5.230;2024-03-29T00:32:51;12.10;99.90
27413;DHT22;14871;52.702;5.230;2024-03-29T00:35:17;12.10;99.90
27413;DHT22;14871;52.702;5.230;2024-03-29T00:37:42;12.10;99.90
27413;DHT22;14871;52.702;5.230;2024-03-29T00:40:09;12.10;99.90
27413;DHT22;14871;52.702;5.230;2024-03-29T00:42:34;12.00;99.90
27413;DHT22;14871;52.702;5.230;2024-03-29T00:45:00;11.80;99.90
27413;DHT22;14871;52.702;5.230;2024-03-29T00:47:26;11.80;99.90
27413;DHT22;14871;52.702;5.230;2024-03-29T00:49:51;12.00;99.90
27413;DHT22;14871;52.702;5.230;2024-03-29T00:52:17;11.90;99.90
27413;DHT22;14871;52.702;5.230;2024-03-29T00:54:43;12.00;99.90
27413;DHT22;14871;52.702;5.230;2024-03-29T00:57:09;12.00;99.90
27413;DHT22;14871;52.702;5.230;2024-03-29T00:59:38;11.90;99.90
27413;DHT22;14871;52.702;5.230;2024-03-29T01:02:04;11.90;99.90
27413;DHT22;14871;52.702;5.230;2024-03-29T01:04:30;11.80;99.90
27413;DHT22;14871;52.702;5.230;2024-03-29T01:06:55;11.90;99.90
27413;DHT22;14871;52.702;5.230;2024-03-29T01:09:21;12.00;99.90
27413;DHT22;14871;52.702;5.230;2024-03-29T01:11:47;11.90;99.90
27413;DHT22;14871;52.702;5.230;2024-03-29T01:14:13;12.00;99.90
27413;DHT22;14871;52.702;5.230;2024-03-29T01:16:38;11.80;99.90
27413;DHT22;14871;52.702;5.230;2024-03-29T01:19:04;11.90;99.90
27413;DHT22;14871;52.702;5.230;2024-03-29T01:21:30;11.90;99.90
27413;DHT22;14871;52.702;5.230;2024-03-29T01:23:56;12.00;99.90
27413;DHT22;14871;52.702;5.230;2024-03-29T01:26:22;12.10;99.90
27413;DHT22;14871;52.702;5.230;2024-03-29T01:28:47;11.80;99.90
27413;DHT22;14871;52.702;5.230;2024-03-29T01:31:13;12.10;99.90
27413;DHT22;14871;52.702;5.230;2024-03-29T01:33:39;12.00;99.90
27413;DHT22;14871;52.702;5.230;2024-03-29T01:36:06;12.00;99.90
27413;DHT22;14871;52.702;5.230;2024-03-29T01:38:32;12.00;99.90
27413;DHT22;14871;52.702;5.230;2024-03-29T01:40:57;11.90;99.90
27413;DHT22;14871;52.702;5.230;2024-03-29T01:43:23;11.90;99.90
27413;DHT22;14871;52.702;5.230;2024-03-29T01:45:51;11.80;99.90
27413;DHT22;14871;52.702;5.230;2024-03-29T01:48:19;11.60;99.90
27413;DHT22;14871;52.702;5.230;2024-03-29T01:50:47;11.60;99.90
27413;DHT22;14871;52.702;5.230;2024-03-29T01:53:15;11.80;99.90
27413;DHT22;14871;52.702;5.230;2024-03-29T01:55:41;11.70;99.90
27413;DHT22;14871;52.702;5.230;2024-03-29T01:58:09;11.50;99.90
27413;DHT22;14871;52.702;5.230;2024-03-29T02:00:42;11.40;99.90
27413;DHT22;14871;52.702;5.230;2024-03-29T02:03:09;11.60;99.90
27413;DHT22;14871;52.702;5.230;2024-03-29T02:05:39;11.90;99.90
27413;DHT22;14871;52.702;5.230;2024-03-29T02:08:07;11.50;99.90
27413;DHT22;14871;52.702;5.230;2024-03-29T02:10:32;11.60;99.90
27413;DHT22;14871;52.702;5.230;2024-03-29T02:12:59;11.40;99.90
27413;DHT22;14871;52.702;5.230;2024-03-29T02:15:24;11.10;99.90
27413;DHT22;14871;52.702;5.230;2024-03-29T02:17:50;11.00;99.90
27413;DHT22;14871;52.702;5.230;2024-03-29T02:20:16;11.20;99.90
27413;DHT22;14871;52.702;5.230;2024-03-29T02:22:50;11.20;99.90
27413;DHT22;14871;52.702;5.230;2024-03-29T02:25:18;11.20;99.90
27413;DHT22;14871;52.702;5.230;2024-03-29T02:27:45;11.00;99.90
27413;DHT22;14871;52.702;5.230;2024-03-29T02:30:19;10.90;99.90
27413;DHT22;14871;52.702;5.230;2024-03-29T02:32:45;11.00;99.90
27413;DHT22;14871;52.702;5.230;2024-03-29T02:35:11;11.10;99.90
27413;DHT22;14871;52.702;5.230;2024-03-29T02:37:37;11.10;99.90
27413;DHT22;14871;52.702;5.230;2024-03-29T02:40:03;11.40;99.90
27413;DHT22;14871;52.702;5.230;2024-03-29T02:42:29;11.40;99.90
27413;DHT22;14871;52.702;5.230;2024-03-29T02:44:55;11.20;99.90
27413;DHT22;14871;52.702;5.230;2024-03-29T02:47:23;11.20;99.90
27413;DHT22;14871;52.702;5.230;2024-03-29T02:49:48;11.10;99.90
27413;DHT22;14871;52.702;5.230;2024-03-29T02:52:14;11.30;99.90
27413;DHT22;14871;52.702;5.230;2024-03-29T02:54:41;11.60;99.90
27413;DHT22;14871;52.702;5.230;2024-03-29T02:57:07;11.50;99.90
27413;DHT22;14871;52.702;5.230;2024-03-29T02:59:32;11.50;99.90
27413;DHT22;14871;52.702;5.230;2024-03-29T03:01:58;11.20;99.90
27413;DHT22;14871;52.702;5.230;2024-03-29T03:04:24;11.20;99.90
27413;DHT22;14871;52.702;5.230;2024-03-29T03:06:49;11.20;99.90
27413;DHT22;14871;52.702;5.230;2024-03-29T03:09:15;11.40;99.90
27413;DHT22;14871;52.702;5.230;2024-03-29T03:11:59;11.40;99.90
27413;DHT22;14871;52.702;5.230;2024-03-29T03:14:25;11.30;99.90
27413;DHT22;14871;52.702;5.230;2024-03-29T03:16:51;11.30;99.90
27413;DHT22;14871;52.702;5.230;2024-03-29T03:19:16;11.10;99.90
27413;DHT22;14871;52.702;5.230;2024-03-29T03:21:42;11.10;99.90
27413;DHT22;14871;52.702;5.230;2024-03-29T03:24:07;11.40;99.90
27413;DHT22;14871;52.702;5.230;2024-03-29T03:26:34;11.20;99.90
27413;DHT22;14871;52.702;5.230;2024-03-29T03:29:00;11.20;99.90
27413;DHT22;14871;52.702;5.230;2024-03-29T03:31:25;11.40;99.90
27413;DHT22;14871;52.702;5.230;2024-03-29T03:33:51;11.60;99.90
27413;DHT22;14871;52.702;5.230;2024-03-29T03:36:16;11.30;99.90
27413;DHT22;14871;52.702;5.230;2024-03-29T03:38:42;11.40;99.90
27413;DHT22;14871;52.702;5.230;2024-03-29T03:41:08;11.40;99.90
27413;DHT22;14871;52.702;5.230;2024-03-29T03:43:33;11.40;99.90
27413;DHT22;14871;52.702;5.230;2024-03-29T03:46:02;11.50;99.90
27413;DHT22;14871;52.702;5.230;2024-03-29T03:48:28;11.50;99.90
27413;DHT22;14871;52.702;5.230;2024-03-29T03:50:57;11.40;99.90
27413;DHT22;14871;52.702;5.230;2024-03-29T03:53:23;11.40;99.90
27413;DHT22;14871;52.702;5.230;2024-03-29T03:55:48;11.40;99.90
27413;DHT22;14871;52.702;5.230;2024-03-29T03:58:14;11.30;99.90
27413;DHT22;14871;52.702;5.230;2024-03-29T04:00:40;11.50;99.90
27413;DHT22;14871;52.702;5.230;2024-03-29T04:03:05;11.30;99.90
27413;DHT22;14871;52.702;5.230;2024-03-29T04:05:31;11.30;99.90
27413;DHT22;14871;52.702;5.230;2024-03-29T04:07:58;11.50;99.90
27413;DHT22;14871;52.702;5.230;2024-03-29T04:10:25;11.50;99.90
27413;DHT22;14871;52.702;5.230;2024-03-29T04:12:50;11.50;99.90
27413;DHT22;14871;52.702;5.230;2024-03-29T04:15:16;11.60;99.90
27413;DHT22;14871;52.702;5.230;2024-03-29T04:17:42;11.60;99.90
27413;DHT22;14871;52.702;5.230;2024-03-29T04:20:07;11.40;99.90
27413;DHT22;14871;52.702;5.230;2024-03-29T04:22:34;11.30;99.90
27413;DHT22;14871;52.702;5.230;2024-03-29T04:24:59;11.40;99.90
27413;DHT22;14871;52.702;5.230;2024-03-29T04:27:25;11.40;99.90
27413;DHT22;14871;52.702;5.230;2024-03-29T04:29:52;11.20;99.90
27413;DHT22;14871;52.702;5.230;2024-03-29T04:32:18;11.40;99.90
27413;DHT22;14871;52.702;5.230;2024-03-29T04:34:49;11.60;99.90
27413;DHT22;14871;52.702;5.230;2024-03-29T04:37:15;11.50;99.90
27413;DHT22;14871;52.702;5.230;2024-03-29T04:39:45;11.60;99.90
27413;DHT22;14871;52.702;5.230;2024-03-29T04:42:11;11.40;99.90
27413;DHT22;14871;52.702;5.230;2024-03-29T04:44:37;11.30;99.90
27413;DHT22;14871;52.702;5.230;2024-03-29T04:47:04;11.10;99.90
27413;DHT22;14871;52.702;5.230;2024-03-29T04:49:30;11.00;99.90
27413;DHT22;14871;52.702;5.230;2024-03-29T04:52:07;11.10;99.90
27413;DHT22;14871;52.702;5.230;2024-03-29T04:54:33;11.00;99.90
27413;DHT22;14871;52.702;5.230;2024-03-29T04:57:00;11.10;99.90
27413;DHT22;14871;52.702;5.230;2024-03-29T04:59:27;10.80;99.90
27413;DHT22;14871;52.702;5.230;2024-03-29T05:01:53;11.00;99.90
27413;DHT22;14871;52.702;5.230;2024-03-29T05:04:20;11.10;99.90
27413;DHT22;14871;52.702;5.230;2024-03-29T05:06:56;11.10;99.90
27413;DHT22;14871;52.702;5.230;2024-03-29T05:09:23;11.10;99.90
27413;DHT22;14871;52.702;5.230;2024-03-29T05:11:49;11.10;99.90
27413;DHT22;14871;52.702;5.230;2024-03-29T05:14:16;11.20;99.90
27413;DHT22;14871;52.702;5.230;2024-03-29T05:16:44;10.90;99.90
27413;DHT22;14871;52.702;5.230;2024-03-29T05:19:10;11.00;99.90
27413;DHT22;14871;52.702;5.230;2024-03-29T05:21:35;11.00;99.90
27413;DHT22;14871;52.702;5.230;2024-03-29T05:24:01;11.00;99.90
27413;DHT22;14871;52.702;5.230;2024-03-29T05:26:26;10.90;99.90
27413;DHT22;14871;52.702;5.230;2024-03-29T05:28:52;11.10;99.90
27413;DHT22;14871;52.702;5.230;2024-03-29T05:31:22;11.20;99.90
27413;DHT22;14871;52.702;5.230;2024-03-29T05:33:47;11.20;99.90
27413;DHT22;14871;52.702;5.230;2024-03-29T05:36:13;11.10;99.90
27413;DHT22;14871;52.702;5.230;2024-03-29T05:38:39;10.90;99.90
27413;DHT22;14871;52.702;5.230;2024-03-29T05:41:05;10.80;99.90
27413;DHT22;14871;52.702;5.230;2024-03-29T05:43:31;11.00;99.90
27413;DHT22;14871;52.702;5.230;2024-03-29T05:45:56;11.30;99.90
27413;DHT22;14871;52.702;5.230;2024-03-29T05:48:22;11.30;99.90
27413;DHT22;14871;52.702;5.230;2024-03-29T05:50:48;11.10;99.90
27413;DHT22;14871;52.702;5.230;2024-03-29T05:53:13;11.30;99.90
27413;DHT22;14871;52.702;5.230;2024-03-29T05:55:39;11.10;99.90
27413;DHT22;14871;52.702;5.230;2024-03-29T05:58:05;11.20;99.90
27413;DHT22;14871;52.702;5.230;2024-03-29T06:00:32;11.30;99.90
27413;DHT22;14871;52.702;5.230;2024-03-29T06:03:00;11.30;99.90
27413;DHT22;14871;52.702;5.230;2024-03-29T06:05:28;11.20;99.90
27413;DHT22;14871;52.702;5.230;2024-03-29T06:07:53;11.20;99.90
27413;DHT22;14871;52.702;5.230;2024-03-29T06:10:19;11.30;99.90
27413;DHT22;14871;52.702;5.230;2024-03-29T06:12:44;11.20;99.90
27413;DHT22;14871;52.702;5.230;2024-03-29T06:15:10;11.30;99.90
27413;DHT22;14871;52.702;5.230;2024-03-29T06:17:54;11.50;99.90
27413;DHT22;14871;52.702;5.230;2024-03-29T06:20:20;11.60;99.90
27413;DHT22;14871;52.702;5.230;2024-03-29T06:22:45;11.50;99.90
27413;DHT22;14871;52.702;5.230;2024-03-29T06:25:11;11.60;99.90
27413;DHT22;14871;52.702;5.230;2024-03-29T06:27:37;11.70;99.90
27413;DHT22;14871;52.702;5.230;2024-03-29T06:30:04;11.70;99.90
27413;DHT22;14871;52.702;5.230;2024-03-29T06:32:31;11.60;99.90
27413;DHT22;14871;52.702;5.230;2024-03-29T06:34:57;11.50;99.90
27413;DHT22;14871;52.702;5.230;2024-03-29T06:37:22;11.50;99.90
27413;DHT22;14871;52.702;5.230;2024-03-29T06:39:51;11.50;99.90
27413;DHT22;14871;52.702;5.230;2024-03-29T06:42:16;11.40;99.90
27413;DHT22;14871;52.702;5.230;2024-03-29T06:44:42;11.50;99.90
27413;DHT22;14871;52.702;5.230;2024-03-29T06:47:08;11.30;99.90
27413;DHT22;14871;52.702;5.230;2024-03-29T06:49:34;11.50;99.90
27413;DHT22;14871;52.702;5.230;2024-03-29T06:51:59;11.50;99.90
27413;DHT22;14871;52.702;5.230;2024-03-29T06:54:27;11.40;99.90
27413;DHT22;14871;52.702;5.230;2024-03-29T06:56:53;11.50;99.90
27413;DHT22;14871;52.702;5.230;2024-03-29T06:59:19;11.70;99.90
27413;DHT22;14871;52.702;5.230;2024-03-29T07:01:45;11.90;99.90
27413;DHT22;14871;52.702;5.230;2024-03-29T07:04:13;11.70;99.90
27413;DHT22;14871;52.702;5.230;2024-03-29T07:06:39;11.60;99.90
27413;DHT22;14871;52.702;5.230;2024-03-29T07:09:07;11.90;99.90
27413;DHT22;14871;52.702;5.230;2024-03-29T07:11:33;12.20;99.90
27413;DHT22;14871;52.702;5.230;2024-03-29T07:13:58;12.20;99.90
27413;DHT22;14871;52.702;5.230;2024-03-29T07:16:24;12.30;99.90
27413;DHT22;14871;52.702;5.230;2024-03-29T07:18:50;12.60;99.90
27413;DHT22;14871;52.702;5.230;2024-03-29T07:21:15;12.60;99.90
27413;DHT22;14871;52.702;5.230;2024-03-29T07:23:41;12.40;99.90
27413;DHT22;14871;52.702;5.230;2024-03-29T07:26:06;12.40;99.90
27413;DHT22;14871;52.702;5.230;2024-03-29T07:28:32;12.40;99.90
27413;DHT22;14871;52.702;5.230;2024-03-29T07:30:58;12.40;99.90
27413;DHT22;14871;52.702;5.230;2024-03-29T07:33:30;12.50;99.90
27413;DHT22;14871;52.702;5.230;2024-03-29T07:35:56;12.60;99.90
27413;DHT22;14871;52.702;5.230;2024-03-29T07:38:22;12.80;99.90
27413;DHT22;14871;52.702;5.230;2024-03-29T07:40:49;13.00;99.90
27413;DHT22;14871;52.702;5.230;2024-03-29T07:43:15;13.00;99.90
27413;DHT22;14871;52.702;5.230;2024-03-29T07:45:41;13.10;99.90
27413;DHT22;14871;52.702;5.230;2024-03-29T07:48:12;13.00;99.90
27413;DHT22;14871;52.702;5.230;2024-03-29T07:50:41;13.10;99.90
27413;DHT22;14871;52.702;5.230;2024-03-29T07:53:07;13.20;99.90
27413;DHT22;14871;52.702;5.230;2024-03-29T07:55:35;13.20;99.90
27413;DHT22;14871;52.702;5.230;2024-03-29T07:58:01;13.40;99.90
27413;DHT22;14871;52.702;5.230;2024-03-29T08:00:26;13.30;99.90
27413;DHT22;14871;52.702;5.230;2024-03-29T08:02:52;13.20;99.90
27413;DHT22;14871;52.702;5.230;2024-03-29T08:05:22;13.10;99.90
27413;DHT22;14871;52.702;5.230;2024-03-29T08:07:47;13.30;99.90
27413;DHT22;14871;52.702;5.230;2024-03-29T08:10:13;13.40;99.90
27413;DHT22;14871;52.702;5.230;2024-03-29T08:12:38;13.40;99.90
27413;DHT22;14871;52.702;5.230;2024-03-29T08:15:04;13.60;99.90
27413;DHT22;14871;52.702;5.230;2024-03-29T08:17:30;13.50;99.90
27413;DHT22;14871;52.702;5.230;2024-03-29T08:19:56;13.80;99.90
27413;DHT22;14871;52.702;5.230;2024-03-29T08:22:22;13.80;99.90
27413;DHT22;14871;52.702;5.230;2024-03-29T08:24:47;14.00;99.90
27413;DHT22;14871;52.702;5.230;2024-03-29T08:27:13;14.10;99.90
27413;DHT22;14871;52.702;5.230;2024-03-29T08:29:42;14.30;99.90
27413;DHT22;14871;52.702;5.230;2024-03-29T08:32:07;14.00;99.90
27413;DHT22;14871;52.702;5.230;2024-03-29T08:34:36;14.10;99.90
27413;DHT22;14871;52.702;5.230;2024-03-29T08:37:02;14.10;99.90
27413;DHT22;14871;52.702;5.230;2024-03-29T08:39:31;14.20;99.90
27413;DHT22;14871;52.702;5.230;2024-03-29T08:42:00;14.40;99.90
27413;DHT22;14871;52.702;5.230;2024-03-29T08:44:33;14.50;99.90
27413;DHT22;14871;52.702;5.230;2024-03-29T08:46:59;14.70;99.90
27413;DHT22;14871;52.702;5.230;2024-03-29T08:49:28;14.60;99.90
27413;DHT22;14871;52.702;5.230;2024-03-29T08:51:54;15.10;99.90
27413;DHT22;14871;52.702;5.230;2024-03-29T08:54:20;15.00;99.90
27413;DHT22;14871;52.702;5.230;2024-03-29T08:56:45;15.10;99.90
27413;DHT22;14871;52.702;5.230;2024-03-29T08:59:11;15.00;99.90
27413;DHT22;14871;52.702;5.230;2024-03-29T09:01:45;14.90;99.90
27413;DHT22;14871;52.702;5.230;2024-03-29T09:04:11;14.70;99.90
27413;DHT22;14871;52.702;5.230;2024-03-29T09:06:40;14.50;99.90
27413;DHT22;14871;52.702;5.230;2024-03-29T09:09:06;14.60;99.90
27413;DHT22;14871;52.702;5.230;2024-03-29T09:11:31;15.10;99.90
27413;DHT22;14871;52.702;5.230;2024-03-29T09:13:57;14.90;99.90
27413;DHT22;14871;52.702;5.230;2024-03-29T09:16:27;15.20;99.90
27413;DHT22;14871;52.702;5.230;2024-03-29T09:18:57;15.40;99.90
27413;DHT22;14871;52.702;5.230;2024-03-29T09:21:22;14.70;99.90
27413;DHT22;14871;52.702;5.230;2024-03-29T09:23:48;14.80;99.90
27413;DHT22;14871;52.702;5.230;2024-03-29T09:26:16;14.60;99.90
27413;DHT22;14871;52.702;5.230;2024-03-29T09:28:42;14.90;99.90
27413;DHT22;14871;52.702;5.230;2024-03-29T09:31:07;14.90;99.90
27413;DHT22;14871;52.702;5.230;2024-03-29T09:33:33;14.80;99.90
27413;DHT22;14871;52.702;5.230;2024-03-29T09:35:59;14.50;99.90
27413;DHT22;14871;52.702;5.230;2024-03-29T09:38:25;14.30;99.90
27413;DHT22;14871;52.702;5.230;2024-03-29T09:43:30;14.00;99.90
27413;DHT22;14871;52.702;5.230;2024-03-29T09:45:56;14.20;99.90
27413;DHT22;14871;52.702;5.230;2024-03-29T09:48:22;14.60;99.90
27413;DHT22;14871;52.702;5.230;2024-03-29T09:50:50;15.00;99.90
27413;DHT22;14871;52.702;5.230;2024-03-29T09:53:16;15.00;99.90
27413;DHT22;14871;52.702;5.230;2024-03-29T09:55:45;14.90;99.90
27413;DHT22;14871;52.702;5.230;2024-03-29T09:58:11;15.00;99.90
27413;DHT22;14871;52.702;5.230;2024-03-29T10:00:36;14.90;99.90
27413;DHT22;14871;52.702;5.230;2024-03-29T10:03:03;14.70;99.90
27413;DHT22;14871;52.702;5.230;2024-03-29T10:05:30;14.80;99.90
27413;DHT22;14871;52.702;5.230;2024-03-29T10:07:57;14.90;99.90
27413;DHT22;14871;52.702;5.230;2024-03-29T10:10:24;15.30;99.90
27413;DHT22;14871;52.702;5.230;2024-03-29T10:12:50;15.50;99.90
27413;DHT22;14871;52.702;5.230;2024-03-29T10:15:15;15.50;99.90
27413;DHT22;14871;52.702;5.230;2024-03-29T10:17:47;15.50;99.90
27413;DHT22;14871;52.702;5.230;2024-03-29T10:20:16;15.40;99.90
27413;DHT22;14871;52.702;5.230;2024-03-29T10:22:43;15.20;99.90
27413;DHT22;14871;52.702;5.230;2024-03-29T10:25:13;15.40;99.90
27413;DHT22;14871;52.702;5.230;2024-03-29T10:27:39;15.30;99.90
27413;DHT22;14871;52.702;5.230;2024-03-29T10:30:07;15.80;99.90
27413;DHT22;14871;52.702;5.230;2024-03-29T10:32:37;15.90;99.90
27413;DHT22;14871;52.702;5.230;2024-03-29T10:35:03;15.90;99.90
27413;DHT22;14871;52.702;5.230;2024-03-29T10:37:30;16.20;99.90
27413;DHT22;14871;52.702;5.230;2024-03-29T10:40:00;16.20;99.90
27413;DHT22;14871;52.702;5.230;2024-03-29T10:42:26;16.30;99.90
27413;DHT22;14871;52.702;5.230;2024-03-29T10:44:53;16.50;99.90
27413;DHT22;14871;52.702;5.230;2024-03-29T10:47:20;16.90;99.90
27413;DHT22;14871;52.702;5.230;2024-03-29T10:49:53;17.00;99.90
27413;DHT22;14871;52.702;5.230;2024-03-29T10:52:22;17.20;99.90
27413;DHT22;14871;52.702;5.230;2024-03-29T10:54:50;17.50;99.90
27413;DHT22;14871;52.702;5.230;2024-03-29T10:57:22;17.50;99.90
27413;DHT22;14871;52.702;5.230;2024-03-29T11:02:39;17.50;99.90
27413;DHT22;14871;52.702;5.230;2024-03-29T11:05:09;17.60;99.90
27413;DHT22;14871;52.702;5.230;2024-03-29T11:07:39;17.40;99.90
27413;DHT22;14871;52.702;5.230;2024-03-29T11:10:06;17.10;99.90
27413;DHT22;14871;52.702;5.230;2024-03-29T11:15:30;17.10;99.90
27413;DHT22;14871;52.702;5.230;2024-03-29T11:17:56;17.10;99.90
27413;DHT22;14871;52.702;5.230;2024-03-29T11:20:31;17.00;99.90
27413;DHT22;14871;52.702;5.230;2024-03-29T11:23:04;17.50;99.90
27413;DHT22;14871;52.702;5.230;2024-03-29T11:25:43;17.70;99.90
27413;DHT22;14871;52.702;5.230;2024-03-29T11:28:12;17.90;99.90
27413;DHT22;14871;52.702;5.230;2024-03-29T11:30:45;18.00;99.90
27413;DHT22;14871;52.702;5.230;2024-03-29T11:36:18;17.90;99.90
27413;DHT22;14871;52.702;5.230;2024-03-29T11:38:48;17.90;99.90
27413;DHT22;14871;52.702;5.230;2024-03-29T11:41:18;17.80;99.90
27413;DHT22;14871;52.702;5.230;2024-03-29T11:43:45;17.80;99.90
27413;DHT22;14871;52.702;5.230;2024-03-29T11:46:12;17.80;99.90
27413;DHT22;14871;52.702;5.230;2024-03-29T11:48:38;17.80;99.90
27413;DHT22;14871;52.702;5.230;2024-03-29T11:51:06;17.60;99.90
27413;DHT22;14871;52.702;5.230;2024-03-29T11:53:32;17.50;99.90
27413;DHT22;14871;52.702;5.230;2024-03-29T11:55:58;17.70;99.90
27413;DHT22;14871;52.702;5.230;2024-03-29T11:58:25;18.00;99.90
27413;DHT22;14871;52.702;5.230;2024-03-29T12:00:53;17.70;99.90
27413;DHT22;14871;52.702;5.230;2024-03-29T12:03:20;17.90;99.90
27413;DHT22;14871;52.702;5.230;2024-03-29T12:05:48;17.60;99.90
27413;DHT22;14871;52.702;5.230;2024-03-29T12:08:16;17.70;99.90
27413;DHT22;14871;52.702;5.230;2024-03-29T12:10:42;17.50;99.90
27413;DHT22;14871;52.702;5.230;2024-03-29T12:13:08;17.50;99.90
27413;DHT22;14871;52.702;5.230;2024-03-29T12:15:34;17.90;99.90
27413;DHT22;14871;52.702;5.230;2024-03-29T12:18:02;17.80;99.90
27413;DHT22;14871;52.702;5.230;2024-03-29T12:20:30;17.70;99.90
27413;DHT22;14871;52.702;5.230;2024-03-29T12:22:59;17.80;99.90
27413;DHT22;14871;52.702;5.230;2024-03-29T12:25:27;17.70;99.90
27413;DHT22;14871;52.702;5.230;2024-03-29T12:27:53;17.80;99.90
27413;DHT22;14871;52.702;5.230;2024-03-29T12:30:19;17.90;99.90
27413;DHT22;14871;52.702;5.230;2024-03-29T12:32:45;18.00;99.90
27413;DHT22;14871;52.702;5.230;2024-03-29T12:35:13;18.00;99.90
27413;DHT22;14871;52.702;5.230;2024-03-29T12:37:50;18.10;99.90
27413;DHT22;14871;52.702;5.230;2024-03-29T12:40:17;18.00;99.90
27413;DHT22;14871;52.702;5.230;2024-03-29T12:42:50;17.90;99.90
27413;DHT22;14871;52.702;5.230;2024-03-29T12:45:17;18.40;99.90
27413;DHT22;14871;52.702;5.230;2024-03-29T12:47:48;18.60;99.90
27413;DHT22;14871;52.702;5.230;2024-03-29T12:50:24;18.30;99.90
27413;DHT22;14871;52.702;5.230;2024-03-29T12:53:12;18.40;99.90
27413;DHT22;14871;52.702;5.230;2024-03-29T12:55:43;18.70;99.90
27413;DHT22;14871;52.702;5.230;2024-03-29T12:58:16;18.90;99.90
27413;DHT22;14871;52.702;5.230;2024-03-29T13:00:43;18.90;99.90
27413;DHT22;14871;52.702;5.230;2024-03-29T13:03:09;19.20;99.90
27413;DHT22;14871;52.702;5.230;2024-03-29T13:05:36;19.30;99.90
27413;DHT22;14871;52.702;5.230;2024-03-29T13:08:07;19.20;99.90
27413;DHT22;14871;52.702;5.230;2024-03-29T13:10:34;19.50;99.90
27413;DHT22;14871;52.702;5.230;2024-03-29T13:13:00;19.70;99.90
27413;DHT22;14871;52.702;5.230;2024-03-29T13:15:27;19.70;99.90
27413;DHT22;14871;52.702;5.230;2024-03-29T13:17:54;19.40;99.90
27413;DHT22;14871;52.702;5.230;2024-03-29T13:20:20;19.80;99.90
27413;DHT22;14871;52.702;5.230;2024-03-29T13:22:47;19.90;99.90
27413;DHT22;14871;52.702;5.230;2024-03-29T13:25:18;19.50;99.90
27413;DHT22;14871;52.702;5.230;2024-03-29T13:27:48;19.30;99.90
27413;DHT22;14871;52.702;5.230;2024-03-29T13:30:14;19.40;99.90
27413;DHT22;14871;52.702;5.230;2024-03-29T13:32:41;19.20;99.90
27413;DHT22;14871;52.702;5.230;2024-03-29T13:35:10;19.00;99.90
27413;DHT22;14871;52.702;5.230;2024-03-29T13:37:40;18.80;99.90
27413;DHT22;14871;52.702;5.230;2024-03-29T13:40:07;18.00;99.90
27413;DHT22;14871;52.702;5.230;2024-03-29T13:42:34;18.10;99.90
27413;DHT22;14871;52.702;5.230;2024-03-29T13:45:00;18.10;99.90
27413;DHT22;14871;52.702;5.230;2024-03-29T13:47:25;18.40;99.90
27413;DHT22;14871;52.702;5.230;2024-03-29T13:49:51;18.60;99.90
27413;DHT22;14871;52.702;5.230;2024-03-29T13:52:19;18.90;99.90
27413;DHT22;14871;52.702;5.230;2024-03-29T13:54:45;18.80;99.90
27413;DHT22;14871;52.702;5.230;2024-03-29T13:57:16;18.70;99.90
27413;DHT22;14871;52.702;5.230;2024-03-29T13:59:44;18.90;99.90
27413;DHT22;14871;52.702;5.230;2024-03-29T14:02:15;18.50;99.90
27413;DHT22;14871;52.702;5.230;2024-03-29T14:04:42;18.50;99.90
27413;DHT22;14871;52.702;5.230;2024-03-29T14:07:09;18.90;99.90
27413;DHT22;14871;52.702;5.230;2024-03-29T14:09:37;18.90;99.90
27413;DHT22;14871;52.702;5.230;2024-03-29T14:12:04;19.00;99.90
27413;DHT22;14871;52.702;5.230;2024-03-29T14:14:30;19.40;99.90
27413;DHT22;14871;52.702;5.230;2024-03-29T14:16:56;19.70;99.90
27413;DHT22;14871;52.702;5.230;2024-03-29T14:19:22;19.70;99.90
27413;DHT22;14871;52.702;5.230;2024-03-29T14:21:47;19.80;99.90
27413;DHT22;14871;52.702;5.230;2024-03-29T14:24:13;19.60;99.90
27413;DHT22;14871;52.702;5.230;2024-03-29T14:26:39;19.60;99.90
27413;DHT22;14871;52.702;5.230;2024-03-29T14:29:05;19.40;99.90
27413;DHT22;14871;52.702;5.230;2024-03-29T14:31:32;19.30;99.90
27413;DHT22;14871;52.702;5.230;2024-03-29T14:33:58;19.00;99.90
27413;DHT22;14871;52.702;5.230;2024-03-29T14:36:23;19.20;99.90
27413;DHT22;14871;52.702;5.230;2024-03-29T14:38:50;19.10;99.90
27413;DHT22;14871;52.702;5.230;2024-03-29T14:41:16;18.90;99.90
27413;DHT22;14871;52.702;5.230;2024-03-29T14:43:41;19.00;99.90
27413;DHT22;14871;52.702;5.230;2024-03-29T14:46:09;19.20;99.90
27413;DHT22;14871;52.702;5.230;2024-03-29T14:48:35;19.50;99.90
27413;DHT22;14871;52.702;5.230;2024-03-29T14:51:01;19.80;99.90
27413;DHT22;14871;52.702;5.230;2024-03-29T14:53:26;20.00;98.50
27413;DHT22;14871;52.702;5.230;2024-03-29T14:55:52;19.40;98.90
27413;DHT22;14871;52.702;5.230;2024-03-29T14:58:18;19.20;99.50
27413;DHT22;14871;52.702;5.230;2024-03-29T15:00:43;19.00;99.80
27413;DHT22;14871;52.702;5.230;2024-03-29T15:03:12;18.80;99.90
27413;DHT22;14871;52.702;5.230;2024-03-29T15:05:38;18.60;99.90
27413;DHT22;14871;52.702;5.230;2024-03-29T15:08:04;18.50;99.90
27413;DHT22;14871;52.702;5.230;2024-03-29T15:10:29;18.60;99.90
27413;DHT22;14871;52.702;5.230;2024-03-29T15:12:56;18.70;99.90
27413;DHT22;14871;52.702;5.230;2024-03-29T15:15:22;18.70;99.90
27413;DHT22;14871;52.702;5.230;2024-03-29T15:17:48;18.70;99.90
27413;DHT22;14871;52.702;5.230;2024-03-29T15:20:13;18.60;99.90
27413;DHT22;14871;52.702;5.230;2024-03-29T15:22:41;18.70;99.90
27413;DHT22;14871;52.702;5.230;2024-03-29T15:25:10;18.70;99.90
27413;DHT22;14871;52.702;5.230;2024-03-29T15:27:35;19.00;99.90
27413;DHT22;14871;52.702;5.230;2024-03-29T15:30:20;19.20;99.90
27413;DHT22;14871;52.702;5.230;2024-03-29T15:32:46;19.10;99.90
27413;DHT22;14871;52.702;5.230;2024-03-29T15:35:11;19.00;99.90
27413;DHT22;14871;52.702;5.230;2024-03-29T15:37:37;19.10;99.90
27413;DHT22;14871;52.702;5.230;2024-03-29T15:40:03;19.20;99.90